sensor_id;sensor_type;location;lat;lon;timestamp;temperature;humidity
50989;DHT22;37008;52.210;21.112;2023-05-02T00:00:41;5.60;97.30
50989;DHT22;37008;52.210;21.112;2023-05-02T00:03:06;5.70;97.40
50989;DHT22;37008;52.210;21.112;2023-05-02T00:05:33;5.70;97.50
50989;DHT22;37008;52.210;21.112;2023-05-02T00:07:59;5.70;97.60
50989;DHT22;37008;52.210;21.112;2023-05-02T00:10:24;5.80;97.80
50989;DHT22;37008;52.210;21.112;2023-05-02T00:12:50;5.80;97.70
50989;DHT22;37008;52.210;21.112;2023-05-02T00:15:15;5.80;97.80
50989;DHT22;37008;52.210;21.112;2023-05-02T00:17:41;5.90;98.00
50989;DHT22;37008;52.210;21.112;2023-05-02T00:20:10;5.90;98.20
50989;DHT22;37008;52.210;21.112;2023-05-02T00:22:36;6.00;98.20
50989;DHT22;37008;52.210;21.112;2023-05-02T00:25:02;6.00;98.20
50989;DHT22;37008;52.210;21.112;2023-05-02T00:27:31;6.00;98.10
50989;DHT22;37008;52.210;21.112;2023-05-02T00:29:57;6.00;98.10
50989;DHT22;37008;52.210;21.112;2023-05-02T00:32:24;6.00;97.80
50989;DHT22;37008;52.210;21.112;2023-05-02T00:34:50;6.10;97.80
50989;DHT22;37008;52.210;21.112;2023-05-02T00:37:16;6.10;97.80
50989;DHT22;37008;52.210;21.112;2023-05-02T00:39:41;6.10;97.70
50989;DHT22;37008;52.210;21.112;2023-05-02T00:42:07;6.10;97.60
50989;DHT22;37008;52.210;21.112;2023-05-02T00:44:32;6.10;97.60
50989;DHT22;37008;52.210;21.112;2023-05-02T00:47:00;6.10;97.60
50989;DHT22;37008;52.210;21.112;2023-05-02T00:49:26;6.00;97.80
50989;DHT22;37008;52.210;21.112;2023-05-02T00:51:53;6.00;97.90
50989;DHT22;37008;52.210;21.112;2023-05-02T00:54:18;6.00;97.90
50989;DHT22;37008;52.210;21.112;2023-05-02T00:56:44;6.00;98.20
50989;DHT22;37008;52.210;21.112;2023-05-02T00:59:11;6.00;98.30
50989;DHT22;37008;52.210;21.112;2023-05-02T01:12:35;5.80;99.00
50989;DHT22;37008;52.210;21.112;2023-05-02T01:15:07;5.80;99.00
50989;DHT22;37008;52.210;21.112;2023-05-02T01:17:35;5.80;99.10
50989;DHT22;37008;52.210;21.112;2023-05-02T01:20:04;5.70;99.30
50989;DHT22;37008;52.210;21.112;2023-05-02T01:22:31;5.70;99.80
50989;DHT22;37008;52.210;21.112;2023-05-02T01:30:09;5.50;99.90
50989;DHT22;37008;52.210;21.112;2023-05-02T01:32:38;5.40;99.90
50989;DHT22;37008;52.210;21.112;2023-05-02T01:35:04;5.40;99.90
50989;DHT22;37008;52.210;21.112;2023-05-02T01:37:31;5.40;99.90
50989;DHT22;37008;52.210;21.112;2023-05-02T01:40:00;5.40;99.90
50989;DHT22;37008;52.210;21.112;2023-05-02T01:42:28;5.30;99.90
50989;DHT22;37008;52.210;21.112;2023-05-02T01:44:54;5.30;99.90
50989;DHT22;37008;52.210;21.112;2023-05-02T01:47:21;5.30;99.90
50989;DHT22;37008;52.210;21.112;2023-05-02T01:49:47;5.20;99.90
50989;DHT22;37008;52.210;21.112;2023-05-02T01:52:15;5.20;99.90
50989;DHT22;37008;52.210;21.112;2023-05-02T01:54:42;5.20;99.90
50989;DHT22;37008;52.210;21.112;2023-05-02T01:57:08;5.20;99.90
50989;DHT22;37008;52.210;21.112;2023-05-02T01:59:36;5.30;99.90
50989;DHT22;37008;52.210;21.112;2023-05-02T02:02:02;5.30;99.90
50989;DHT22;37008;52.210;21.112;2023-05-02T02:04:29;5.30;99.90
50989;DHT22;37008;52.210;21.112;2023-05-02T02:07:06;5.30;99.90
50989;DHT22;37008;52.210;21.112;2023-05-02T02:09:33;5.30;99.90
50989;DHT22;37008;52.210;21.112;2023-05-02T02:12:04;5.40;99.90
50989;DHT22;37008;52.210;21.112;2023-05-02T02:14:36;5.40;99.90
50989;DHT22;37008;52.210;21.112;2023-05-02T02:17:08;5.50;99.90
50989;DHT22;37008;52.210;21.112;2023-05-02T02:19:37;5.50;99.90
50989;DHT22;37008;52.210;21.112;2023-05-02T02:22:04;5.60;99.90
50989;DHT22;37008;52.210;21.112;2023-05-02T02:24:36;5.70;99.90
50989;DHT22;37008;52.210;21.112;2023-05-02T02:27:03;5.70;99.90
50989;DHT22;37008;52.210;21.112;2023-05-02T02:29:29;5.80;99.90
50989;DHT22;37008;52.210;21.112;2023-05-02T02:31:55;5.90;99.90
50989;DHT22;37008;52.210;21.112;2023-05-02T02:34:21;5.90;99.90
50989;DHT22;37008;52.210;21.112;2023-05-02T02:37:04;5.90;99.90
50989;DHT22;37008;52.210;21.112;2023-05-02T02:40:05;5.90;99.90
50989;DHT22;37008;52.210;21.112;2023-05-02T02:45:43;6.00;99.90
50989;DHT22;37008;52.210;21.112;2023-05-02T02:56:21;6.10;99.90
50989;DHT22;37008;52.210;21.112;2023-05-02T03:01:21;6.10;99.90
50989;DHT22;37008;52.210;21.112;2023-05-02T03:03:50;6.10;99.90
50989;DHT22;37008;52.210;21.112;2023-05-02T03:06:19;6.10;99.90
50989;DHT22;37008;52.210;21.112;2023-05-02T03:08:45;6.20;99.90
50989;DHT22;37008;52.210;21.112;2023-05-02T03:11:11;6.20;99.90
50989;DHT22;37008;52.210;21.112;2023-05-02T03:13:36;6.20;99.90
50989;DHT22;37008;52.210;21.112;2023-05-02T03:18:53;6.30;99.90
50989;DHT22;37008;52.210;21.112;2023-05-02T03:21:18;6.30;99.90
50989;DHT22;37008;52.210;21.112;2023-05-02T03:23:44;6.30;99.90
50989;DHT22;37008;52.210;21.112;2023-05-02T03:26:09;6.30;99.90
50989;DHT22;37008;52.210;21.112;2023-05-02T03:28:35;6.30;99.90
50989;DHT22;37008;52.210;21.112;2023-05-02T03:31:01;6.40;99.90
50989;DHT22;37008;52.210;21.112;2023-05-02T03:33:26;6.40;99.90
50989;DHT22;37008;52.210;21.112;2023-05-02T03:35:52;6.40;99.90
50989;DHT22;37008;52.210;21.112;2023-05-02T03:38:18;6.40;99.90
50989;DHT22;37008;52.210;21.112;2023-05-02T03:40:43;6.50;99.90
50989;DHT22;37008;52.210;21.112;2023-05-02T03:43:09;6.50;99.90
50989;DHT22;37008;52.210;21.112;2023-05-02T03:45:35;6.50;99.90
50989;DHT22;37008;52.210;21.112;2023-05-02T03:48:01;6.60;99.90
50989;DHT22;37008;52.210;21.112;2023-05-02T03:50:27;6.60;99.90
50989;DHT22;37008;52.210;21.112;2023-05-02T03:52:52;6.70;99.90
50989;DHT22;37008;52.210;21.112;2023-05-02T03:55:18;6.60;99.90
50989;DHT22;37008;52.210;21.112;2023-05-02T03:57:44;6.70;99.90
50989;DHT22;37008;52.210;21.112;2023-05-02T04:00:10;6.70;99.90
50989;DHT22;37008;52.210;21.112;2023-05-02T04:02:36;6.80;99.90
50989;DHT22;37008;52.210;21.112;2023-05-02T04:05:01;6.80;99.90
50989;DHT22;37008;52.210;21.112;2023-05-02T04:07:27;6.90;99.90
50989;DHT22;37008;52.210;21.112;2023-05-02T04:09:52;6.90;99.90
50989;DHT22;37008;52.210;21.112;2023-05-02T04:12:19;6.90;99.90
50989;DHT22;37008;52.210;21.112;2023-05-02T04:14:44;7.00;99.90
50989;DHT22;37008;52.210;21.112;2023-05-02T04:17:10;7.10;99.90
50989;DHT22;37008;52.210;21.112;2023-05-02T04:19:35;7.20;99.90
50989;DHT22;37008;52.210;21.112;2023-05-02T04:22:01;7.30;99.90
50989;DHT22;37008;52.210;21.112;2023-05-02T04:24:27;7.30;99.90
50989;DHT22;37008;52.210;21.112;2023-05-02T04:26:53;7.40;99.90
50989;DHT22;37008;52.210;21.112;2023-05-02T04:29:19;7.50;99.90
50989;DHT22;37008;52.210;21.112;2023-05-02T04:31:45;7.60;99.90
50989;DHT22;37008;52.210;21.112;2023-05-02T04:34:10;7.60;99.90
50989;DHT22;37008;52.210;21.112;2023-05-02T04:36:36;7.70;99.80
50989;DHT22;37008;52.210;21.112;2023-05-02T04:39:02;7.70;99.50
50989;DHT22;37008;52.210;21.112;2023-05-02T04:41:29;7.90;99.40
50989;DHT22;37008;52.210;21.112;2023-05-02T04:43:54;7.90;99.10
50989;DHT22;37008;52.210;21.112;2023-05-02T04:46:20;7.90;98.70
50989;DHT22;37008;52.210;21.112;2023-05-02T04:48:46;8.00;98.30
50989;DHT22;37008;52.210;21.112;2023-05-02T04:51:11;8.00;98.00
50989;DHT22;37008;52.210;21.112;2023-05-02T04:53:37;8.10;97.60
50989;DHT22;37008;52.210;21.112;2023-05-02T04:56:03;8.10;97.30
50989;DHT22;37008;52.210;21.112;2023-05-02T04:58:29;8.20;97.10
50989;DHT22;37008;52.210;21.112;2023-05-02T05:00:54;8.20;97.10
50989;DHT22;37008;52.210;21.112;2023-05-02T05:03:20;8.20;96.80
50989;DHT22;37008;52.210;21.112;2023-05-02T05:05:46;8.20;96.60
50989;DHT22;37008;52.210;21.112;2023-05-02T05:08:12;8.20;96.50
50989;DHT22;37008;52.210;21.112;2023-05-02T05:10:39;8.20;96.30
50989;DHT22;37008;52.210;21.112;2023-05-02T05:13:07;8.20;96.20
50989;DHT22;37008;52.210;21.112;2023-05-02T05:15:33;8.30;96.10
50989;DHT22;37008;52.210;21.112;2023-05-02T05:17:58;8.40;95.90
50989;DHT22;37008;52.210;21.112;2023-05-02T05:20:24;8.40;96.00
50989;DHT22;37008;52.210;21.112;2023-05-02T05:22:49;8.40;95.80
50989;DHT22;37008;52.210;21.112;2023-05-02T05:25:15;8.50;95.50
50989;DHT22;37008;52.210;21.112;2023-05-02T05:27:41;8.60;95.30
50989;DHT22;37008;52.210;21.112;2023-05-02T05:30:07;8.80;95.00
50989;DHT22;37008;52.210;21.112;2023-05-02T05:32:35;8.90;94.90
50989;DHT22;37008;52.210;21.112;2023-05-02T05:35:01;9.00;94.60
50989;DHT22;37008;52.210;21.112;2023-05-02T05:37:27;9.20;94.10
50989;DHT22;37008;52.210;21.112;2023-05-02T05:39:52;9.30;93.70
50989;DHT22;37008;52.210;21.112;2023-05-02T05:42:18;9.50;93.20
50989;DHT22;37008;52.210;21.112;2023-05-02T05:44:43;9.70;92.70
50989;DHT22;37008;52.210;21.112;2023-05-02T05:47:09;9.80;92.10
50989;DHT22;37008;52.210;21.112;2023-05-02T05:49:35;10.00;91.40
50989;DHT22;37008;52.210;21.112;2023-05-02T05:52:01;10.00;90.90
50989;DHT22;37008;52.210;21.112;2023-05-02T05:54:27;10.30;90.10
50989;DHT22;37008;52.210;21.112;2023-05-02T05:56:53;10.40;88.60
50989;DHT22;37008;52.210;21.112;2023-05-02T05:59:18;10.60;87.80
50989;DHT22;37008;52.210;21.112;2023-05-02T06:01:44;10.80;87.30
50989;DHT22;37008;52.210;21.112;2023-05-02T06:04:10;11.00;86.40
50989;DHT22;37008;52.210;21.112;2023-05-02T06:06:36;11.10;84.60
50989;DHT22;37008;52.210;21.112;2023-05-02T06:09:02;11.30;83.70
50989;DHT22;37008;52.210;21.112;2023-05-02T06:11:28;11.50;83.00
50989;DHT22;37008;52.210;21.112;2023-05-02T06:13:54;11.70;82.60
50989;DHT22;37008;52.210;21.112;2023-05-02T06:16:20;11.80;81.30
50989;DHT22;37008;52.210;21.112;2023-05-02T06:18:46;11.90;80.30
50989;DHT22;37008;52.210;21.112;2023-05-02T06:21:12;12.10;79.70
50989;DHT22;37008;52.210;21.112;2023-05-02T06:23:37;12.20;79.10
50989;DHT22;37008;52.210;21.112;2023-05-02T06:26:04;12.30;78.10
50989;DHT22;37008;52.210;21.112;2023-05-02T06:28:30;12.60;77.70
50989;DHT22;37008;52.210;21.112;2023-05-02T06:31:00;12.80;76.90
50989;DHT22;37008;52.210;21.112;2023-05-02T06:33:27;13.00;75.90
50989;DHT22;37008;52.210;21.112;2023-05-02T06:35:53;13.40;75.20
50989;DHT22;37008;52.210;21.112;2023-05-02T06:38:19;13.70;73.70
50989;DHT22;37008;52.210;21.112;2023-05-02T06:40:45;14.00;72.70
50989;DHT22;37008;52.210;21.112;2023-05-02T06:43:11;14.10;71.60
50989;DHT22;37008;52.210;21.112;2023-05-02T06:45:37;14.30;70.80
50989;DHT22;37008;52.210;21.112;2023-05-02T06:48:03;14.30;70.20
50989;DHT22;37008;52.210;21.112;2023-05-02T06:50:29;14.40;69.80
50989;DHT22;37008;52.210;21.112;2023-05-02T06:52:54;14.40;69.60
50989;DHT22;37008;52.210;21.112;2023-05-02T06:55:20;14.40;69.40
50989;DHT22;37008;52.210;21.112;2023-05-02T06:57:48;14.60;69.00
50989;DHT22;37008;52.210;21.112;2023-05-02T07:00:15;14.80;68.60
50989;DHT22;37008;52.210;21.112;2023-05-02T07:02:41;15.00;68.20
50989;DHT22;37008;52.210;21.112;2023-05-02T07:05:07;15.20;67.70
50989;DHT22;37008;52.210;21.112;2023-05-02T07:07:32;15.30;67.20
50989;DHT22;37008;52.210;21.112;2023-05-02T07:09:58;15.40;67.80
50989;DHT22;37008;52.210;21.112;2023-05-02T07:12:25;15.50;67.00
50989;DHT22;37008;52.210;21.112;2023-05-02T07:14:51;15.60;67.10
50989;DHT22;37008;52.210;21.112;2023-05-02T07:17:17;15.70;66.90
50989;DHT22;37008;52.210;21.112;2023-05-02T07:19:42;15.90;66.40
50989;DHT22;37008;52.210;21.112;2023-05-02T07:22:08;16.00;65.20
50989;DHT22;37008;52.210;21.112;2023-05-02T07:24:34;16.20;64.20
50989;DHT22;37008;52.210;21.112;2023-05-02T07:26:59;16.40;63.30
50989;DHT22;37008;52.210;21.112;2023-05-02T07:29:25;16.50;62.00
50989;DHT22;37008;52.210;21.112;2023-05-02T07:31:51;16.70;61.40
50989;DHT22;37008;52.210;21.112;2023-05-02T07:34:17;16.90;60.40
50989;DHT22;37008;52.210;21.112;2023-05-02T07:36:42;16.90;59.50
50989;DHT22;37008;52.210;21.112;2023-05-02T07:39:08;17.10;59.70
50989;DHT22;37008;52.210;21.112;2023-05-02T07:41:34;17.20;58.30
50989;DHT22;37008;52.210;21.112;2023-05-02T07:43:59;17.30;57.90
50989;DHT22;37008;52.210;21.112;2023-05-02T07:46:25;17.50;57.20
50989;DHT22;37008;52.210;21.112;2023-05-02T07:48:51;17.60;56.70
50989;DHT22;37008;52.210;21.112;2023-05-02T07:51:18;17.70;56.10
50989;DHT22;37008;52.210;21.112;2023-05-02T07:53:46;17.80;55.80
50989;DHT22;37008;52.210;21.112;2023-05-02T07:56:11;17.90;55.30
50989;DHT22;37008;52.210;21.112;2023-05-02T07:58:37;18.00;55.10
50989;DHT22;37008;52.210;21.112;2023-05-02T08:01:03;18.10;54.70
50989;DHT22;37008;52.210;21.112;2023-05-02T08:03:30;18.20;54.10
50989;DHT22;37008;52.210;21.112;2023-05-02T08:05:56;18.40;53.60
50989;DHT22;37008;52.210;21.112;2023-05-02T08:08:21;18.50;53.00
50989;DHT22;37008;52.210;21.112;2023-05-02T08:10:47;18.60;52.80
50989;DHT22;37008;52.210;21.112;2023-05-02T08:13:14;18.70;52.30
50989;DHT22;37008;52.210;21.112;2023-05-02T08:15:40;18.70;52.00
50989;DHT22;37008;52.210;21.112;2023-05-02T08:18:05;18.80;51.80
50989;DHT22;37008;52.210;21.112;2023-05-02T08:20:31;18.80;51.40
50989;DHT22;37008;52.210;21.112;2023-05-02T08:22:57;18.90;51.10
50989;DHT22;37008;52.210;21.112;2023-05-02T08:25:22;19.00;51.20
50989;DHT22;37008;52.210;21.112;2023-05-02T08:27:48;19.10;51.00
50989;DHT22;37008;52.210;21.112;2023-05-02T08:30:13;19.20;50.90
50989;DHT22;37008;52.210;21.112;2023-05-02T08:32:39;19.30;51.10
50989;DHT22;37008;52.210;21.112;2023-05-02T08:35:05;19.40;51.00
50989;DHT22;37008;52.210;21.112;2023-05-02T08:37:31;19.50;50.60
50989;DHT22;37008;52.210;21.112;2023-05-02T08:39:56;19.50;50.30
50989;DHT22;37008;52.210;21.112;2023-05-02T08:42:23;19.50;49.90
50989;DHT22;37008;52.210;21.112;2023-05-02T08:44:49;19.50;49.90
50989;DHT22;37008;52.210;21.112;2023-05-02T08:47:15;19.50;50.30
50989;DHT22;37008;52.210;21.112;2023-05-02T08:49:43;19.50;50.50
50989;DHT22;37008;52.210;21.112;2023-05-02T08:52:11;19.60;50.70
50989;DHT22;37008;52.210;21.112;2023-05-02T08:54:38;19.80;50.50
50989;DHT22;37008;52.210;21.112;2023-05-02T08:57:05;20.00;50.20
50989;DHT22;37008;52.210;21.112;2023-05-02T08:59:31;20.00;49.70
50989;DHT22;37008;52.210;21.112;2023-05-02T09:02:11;20.00;49.70
50989;DHT22;37008;52.210;21.112;2023-05-02T09:04:40;20.10;49.50
50989;DHT22;37008;52.210;21.112;2023-05-02T09:07:06;20.20;49.60
50989;DHT22;37008;52.210;21.112;2023-05-02T09:09:33;20.30;49.40
50989;DHT22;37008;52.210;21.112;2023-05-02T09:11:58;20.40;49.30
50989;DHT22;37008;52.210;21.112;2023-05-02T09:14:24;20.50;49.30
50989;DHT22;37008;52.210;21.112;2023-05-02T09:16:58;20.70;49.90
50989;DHT22;37008;52.210;21.112;2023-05-02T09:19:25;20.90;48.90
50989;DHT22;37008;52.210;21.112;2023-05-02T09:21:51;21.00;48.30
50989;DHT22;37008;52.210;21.112;2023-05-02T09:24:19;21.10;48.20
50989;DHT22;37008;52.210;21.112;2023-05-02T09:27:02;21.30;47.80
50989;DHT22;37008;52.210;21.112;2023-05-02T09:29:29;21.30;47.40
50989;DHT22;37008;52.210;21.112;2023-05-02T09:32:00;21.30;47.40
50989;DHT22;37008;52.210;21.112;2023-05-02T09:34:26;21.40;47.80
50989;DHT22;37008;52.210;21.112;2023-05-02T09:36:52;21.50;48.00
50989;DHT22;37008;52.210;21.112;2023-05-02T09:39:23;21.70;47.70
50989;DHT22;37008;52.210;21.112;2023-05-02T09:41:49;21.70;47.10
50989;DHT22;37008;52.210;21.112;2023-05-02T09:44:19;21.80;47.10
50989;DHT22;37008;52.210;21.112;2023-05-02T09:46:55;21.80;47.10
50989;DHT22;37008;52.210;21.112;2023-05-02T09:49:43;21.80;46.50
50989;DHT22;37008;52.210;21.112;2023-05-02T09:52:16;21.70;46.50
50989;DHT22;37008;52.210;21.112;2023-05-02T09:54:43;21.60;46.60
50989;DHT22;37008;52.210;21.112;2023-05-02T09:57:10;21.60;46.50
50989;DHT22;37008;52.210;21.112;2023-05-02T09:59:37;21.60;46.40
50989;DHT22;37008;52.210;21.112;2023-05-02T10:02:04;21.50;46.60
50989;DHT22;37008;52.210;21.112;2023-05-02T10:04:32;21.50;46.70
50989;DHT22;37008;52.210;21.112;2023-05-02T10:06:58;21.60;47.00
50989;DHT22;37008;52.210;21.112;2023-05-02T10:09:25;21.60;47.20
50989;DHT22;37008;52.210;21.112;2023-05-02T10:11:54;21.50;47.60
50989;DHT22;37008;52.210;21.112;2023-05-02T10:14:22;21.40;47.70
50989;DHT22;37008;52.210;21.112;2023-05-02T10:17:01;21.30;47.70
50989;DHT22;37008;52.210;21.112;2023-05-02T10:19:40;21.30;48.00
50989;DHT22;37008;52.210;21.112;2023-05-02T10:22:11;21.30;47.60
50989;DHT22;37008;52.210;21.112;2023-05-02T10:24:38;21.40;48.00
50989;DHT22;37008;52.210;21.112;2023-05-02T10:27:05;21.50;47.50
50989;DHT22;37008;52.210;21.112;2023-05-02T10:29:31;21.40;47.30
50989;DHT22;37008;52.210;21.112;2023-05-02T10:31:59;21.30;47.80
50989;DHT22;37008;52.210;21.112;2023-05-02T10:34:26;21.40;48.20
50989;DHT22;37008;52.210;21.112;2023-05-02T10:36:54;21.40;48.50
50989;DHT22;37008;52.210;21.112;2023-05-02T10:39:20;21.30;48.60
50989;DHT22;37008;52.210;21.112;2023-05-02T10:41:50;21.00;48.70
50989;DHT22;37008;52.210;21.112;2023-05-02T10:44:34;20.90;49.00
50989;DHT22;37008;52.210;21.112;2023-05-02T10:47:00;20.70;49.60
50989;DHT22;37008;52.210;21.112;2023-05-02T10:52:35;20.00;51.60
50989;DHT22;37008;52.210;21.112;2023-05-02T10:55:22;19.70;52.60
50989;DHT22;37008;52.210;21.112;2023-05-02T11:00:29;19.10;54.40
50989;DHT22;37008;52.210;21.112;2023-05-02T11:02:56;18.80;55.30
50989;DHT22;37008;52.210;21.112;2023-05-02T11:05:22;18.50;56.00
50989;DHT22;37008;52.210;21.112;2023-05-02T11:07:49;18.30;56.60
50989;DHT22;37008;52.210;21.112;2023-05-02T11:12:51;18.00;57.70
50989;DHT22;37008;52.210;21.112;2023-05-02T11:18:12;17.60;58.50
50989;DHT22;37008;52.210;21.112;2023-05-02T11:20:39;17.40;59.10
50989;DHT22;37008;52.210;21.112;2023-05-02T11:25:47;17.00;60.10
50989;DHT22;37008;52.210;21.112;2023-05-02T11:31:02;16.50;63.60
50989;DHT22;37008;52.210;21.112;2023-05-02T11:33:28;15.90;67.00
50989;DHT22;37008;52.210;21.112;2023-05-02T11:35:54;15.50;68.90
50989;DHT22;37008;52.210;21.112;2023-05-02T11:38:22;15.30;70.60
50989;DHT22;37008;52.210;21.112;2023-05-02T11:40:52;15.30;71.70
50989;DHT22;37008;52.210;21.112;2023-05-02T11:43:19;15.20;73.30
50989;DHT22;37008;52.210;21.112;2023-05-02T11:45:46;15.10;74.50
50989;DHT22;37008;52.210;21.112;2023-05-02T11:48:14;14.90;77.20
50989;DHT22;37008;52.210;21.112;2023-05-02T11:50:44;14.80;82.90
50989;DHT22;37008;52.210;21.112;2023-05-02T11:53:12;14.70;88.40
50989;DHT22;37008;52.210;21.112;2023-05-02T11:55:47;14.80;91.80
50989;DHT22;37008;52.210;21.112;2023-05-02T11:58:17;15.00;91.30
50989;DHT22;37008;52.210;21.112;2023-05-02T12:00:44;15.20;90.40
50989;DHT22;37008;52.210;21.112;2023-05-02T12:05:55;15.60;88.70
50989;DHT22;37008;52.210;21.112;2023-05-02T12:08:23;15.90;87.00
50989;DHT22;37008;52.210;21.112;2023-05-02T12:10:50;16.10;84.70
50989;DHT22;37008;52.210;21.112;2023-05-02T12:13:17;16.30;82.00
50989;DHT22;37008;52.210;21.112;2023-05-02T12:15:42;16.40;78.50
50989;DHT22;37008;52.210;21.112;2023-05-02T12:18:08;16.50;75.90
50989;DHT22;37008;52.210;21.112;2023-05-02T12:20:35;16.60;74.60
50989;DHT22;37008;52.210;21.112;2023-05-02T12:23:04;16.70;73.90
50989;DHT22;37008;52.210;21.112;2023-05-02T12:25:32;16.80;73.30
50989;DHT22;37008;52.210;21.112;2023-05-02T12:28:01;17.10;72.10
50989;DHT22;37008;52.210;21.112;2023-05-02T12:30:29;17.40;71.30
50989;DHT22;37008;52.210;21.112;2023-05-02T12:32:59;17.70;69.80
50989;DHT22;37008;52.210;21.112;2023-05-02T12:35:29;17.80;67.40
50989;DHT22;37008;52.210;21.112;2023-05-02T12:40:35;18.10;65.40
50989;DHT22;37008;52.210;21.112;2023-05-02T12:43:02;18.20;64.20
50989;DHT22;37008;52.210;21.112;2023-05-02T12:45:30;18.20;63.70
50989;DHT22;37008;52.210;21.112;2023-05-02T12:48:20;18.30;64.00
50989;DHT22;37008;52.210;21.112;2023-05-02T12:50:46;18.50;63.60
50989;DHT22;37008;52.210;21.112;2023-05-02T12:53:12;18.60;63.00
50989;DHT22;37008;52.210;21.112;2023-05-02T12:55:38;18.80;62.70
50989;DHT22;37008;52.210;21.112;2023-05-02T12:58:06;18.90;60.60
50989;DHT22;37008;52.210;21.112;2023-05-02T13:00:33;18.90;60.80
50989;DHT22;37008;52.210;21.112;2023-05-02T13:02:59;18.90;59.70
50989;DHT22;37008;52.210;21.112;2023-05-02T13:05:25;18.90;59.00
50989;DHT22;37008;52.210;21.112;2023-05-02T13:07:51;18.70;58.50
50989;DHT22;37008;52.210;21.112;2023-05-02T13:10:18;18.60;58.40
50989;DHT22;37008;52.210;21.112;2023-05-02T13:12:46;18.40;58.60
50989;DHT22;37008;52.210;21.112;2023-05-02T13:15:13;18.20;58.80
50989;DHT22;37008;52.210;21.112;2023-05-02T13:17:39;18.00;59.20
50989;DHT22;37008;52.210;21.112;2023-05-02T13:20:05;18.00;58.80
50989;DHT22;37008;52.210;21.112;2023-05-02T13:22:33;17.80;58.40
50989;DHT22;37008;52.210;21.112;2023-05-02T13:24:58;17.80;58.30
50989;DHT22;37008;52.210;21.112;2023-05-02T13:27:24;17.70;58.30
50989;DHT22;37008;52.210;21.112;2023-05-02T13:29:50;17.70;58.40
50989;DHT22;37008;52.210;21.112;2023-05-02T13:32:16;17.80;57.60
50989;DHT22;37008;52.210;21.112;2023-05-02T13:34:42;17.80;57.30
50989;DHT22;37008;52.210;21.112;2023-05-02T13:37:08;17.80;57.30
50989;DHT22;37008;52.210;21.112;2023-05-02T13:39:34;17.90;57.30
50989;DHT22;37008;52.210;21.112;2023-05-02T13:42:00;18.00;57.00
50989;DHT22;37008;52.210;21.112;2023-05-02T13:44:29;18.10;56.70
50989;DHT22;37008;52.210;21.112;2023-05-02T13:46:55;18.30;56.20
50989;DHT22;37008;52.210;21.112;2023-05-02T13:49:21;18.40;55.90
50989;DHT22;37008;52.210;21.112;2023-05-02T13:51:47;18.60;55.30
50989;DHT22;37008;52.210;21.112;2023-05-02T13:54:14;18.70;55.00
50989;DHT22;37008;52.210;21.112;2023-05-02T13:56:42;18.90;54.50
50989;DHT22;37008;52.210;21.112;2023-05-02T13:59:08;19.10;53.70
50989;DHT22;37008;52.210;21.112;2023-05-02T14:01:34;19.10;53.10
50989;DHT22;37008;52.210;21.112;2023-05-02T14:04:00;19.10;52.00
50989;DHT22;37008;52.210;21.112;2023-05-02T14:06:31;19.00;51.70
50989;DHT22;37008;52.210;21.112;2023-05-02T14:08:57;19.00;51.70
50989;DHT22;37008;52.210;21.112;2023-05-02T14:11:22;18.90;51.50
50989;DHT22;37008;52.210;21.112;2023-05-02T14:13:48;18.90;51.50
50989;DHT22;37008;52.210;21.112;2023-05-02T14:16:13;18.90;51.10
50989;DHT22;37008;52.210;21.112;2023-05-02T14:18:39;18.90;51.00
50989;DHT22;37008;52.210;21.112;2023-05-02T14:21:05;18.90;50.80
50989;DHT22;37008;52.210;21.112;2023-05-02T14:23:30;18.90;51.10
50989;DHT22;37008;52.210;21.112;2023-05-02T14:25:56;18.90;51.40
50989;DHT22;37008;52.210;21.112;2023-05-02T14:28:22;19.00;51.10
50989;DHT22;37008;52.210;21.112;2023-05-02T14:30:48;19.10;50.60
50989;DHT22;37008;52.210;21.112;2023-05-02T14:33:14;19.00;50.60
50989;DHT22;37008;52.210;21.112;2023-05-02T14:35:40;19.00;50.70
50989;DHT22;37008;52.210;21.112;2023-05-02T14:38:05;19.00;50.10
50989;DHT22;37008;52.210;21.112;2023-05-02T14:40:31;18.80;49.90
50989;DHT22;37008;52.210;21.112;2023-05-02T14:42:57;18.70;50.10
50989;DHT22;37008;52.210;21.112;2023-05-02T14:45:23;18.60;50.40
50989;DHT22;37008;52.210;21.112;2023-05-02T14:47:48;18.60;50.40
50989;DHT22;37008;52.210;21.112;2023-05-02T14:50:15;18.50;50.30
50989;DHT22;37008;52.210;21.112;2023-05-02T14:52:41;18.40;50.50
50989;DHT22;37008;52.210;21.112;2023-05-02T14:55:06;18.30;50.70
50989;DHT22;37008;52.210;21.112;2023-05-02T14:57:33;18.10;51.10
50989;DHT22;37008;52.210;21.112;2023-05-02T14:59:59;18.10;51.60
50989;DHT22;37008;52.210;21.112;2023-05-02T15:02:24;17.90;52.00
50989;DHT22;37008;52.210;21.112;2023-05-02T15:04:50;17.80;52.30
50989;DHT22;37008;52.210;21.112;2023-05-02T15:07:16;17.80;52.80
50989;DHT22;37008;52.210;21.112;2023-05-02T15:09:44;17.70;53.30
50989;DHT22;37008;52.210;21.112;2023-05-02T15:12:10;17.70;53.50
50989;DHT22;37008;52.210;21.112;2023-05-02T15:14:35;17.70;53.60
50989;DHT22;37008;52.210;21.112;2023-05-02T15:17:01;17.70;53.50
50989;DHT22;37008;52.210;21.112;2023-05-02T15:19:26;17.70;53.70
50989;DHT22;37008;52.210;21.112;2023-05-02T15:21:52;17.70;54.00
50989;DHT22;37008;52.210;21.112;2023-05-02T15:24:18;17.70;53.80
50989;DHT22;37008;52.210;21.112;2023-05-02T15:26:44;17.70;53.60
50989;DHT22;37008;52.210;21.112;2023-05-02T15:29:10;17.60;54.00
50989;DHT22;37008;52.210;21.112;2023-05-02T15:31:36;17.50;53.30
50989;DHT22;37008;52.210;21.112;2023-05-02T15:34:02;17.40;52.50
50989;DHT22;37008;52.210;21.112;2023-05-02T15:36:28;17.40;52.10
50989;DHT22;37008;52.210;21.112;2023-05-02T15:38:55;17.30;52.00
50989;DHT22;37008;52.210;21.112;2023-05-02T15:41:21;17.30;52.30
50989;DHT22;37008;52.210;21.112;2023-05-02T15:43:46;17.20;52.20
50989;DHT22;37008;52.210;21.112;2023-05-02T15:46:12;17.20;52.50
50989;DHT22;37008;52.210;21.112;2023-05-02T15:48:37;17.20;52.50
50989;DHT22;37008;52.210;21.112;2023-05-02T15:51:03;17.10;52.50
50989;DHT22;37008;52.210;21.112;2023-05-02T15:53:33;17.10;52.60
50989;DHT22;37008;52.210;21.112;2023-05-02T15:56:09;17.20;52.60
50989;DHT22;37008;52.210;21.112;2023-05-02T15:58:35;17.10;52.50
50989;DHT22;37008;52.210;21.112;2023-05-02T16:01:01;17.20;52.60
50989;DHT22;37008;52.210;21.112;2023-05-02T16:03:27;17.20;52.60
50989;DHT22;37008;52.210;21.112;2023-05-02T16:05:53;17.20;52.80
50989;DHT22;37008;52.210;21.112;2023-05-02T16:08:20;17.20;52.90
50989;DHT22;37008;52.210;21.112;2023-05-02T16:10:46;17.20;52.80
50989;DHT22;37008;52.210;21.112;2023-05-02T16:13:11;17.30;52.90